Terminal Aerodrome Forecast
Issued by NWS

Home | Current Version | Previous Version | Text Only | Print | Product List | Glossary On
Versions: 1 2 3 4 5 6 7 8 9 10 11 12 13 14 15 16 17 18 19 20 21 22 23 24
000
FTUS44 KTSA 180900 AAA
TAFXNA
TAF AMD
KXNA 180921Z 1809/1906 02008KT P6SM SCT040 BKN100
      TEMPO 1809/1813 4SM -TSRA BKN030CB
     FM181600 VRB05KT P6SM BKN040
     FM190000 VRB03KT P6SM BKN250=

USA.gov is the U.S. government's official web portal to all federal, state and local government web resources and services.